Time;durP1;ratioP1;P1;durP2;ratioP2;P2;SDS_P1;SDS_P2;PMS_P1;PMS_P2;Temp;Humidity;BMP_temperature;BMP_pressure;BME280_temperature;BME280_humidity;BME280_pressure;Samples;Min_cycle;Max_cycle;Signal;HPM_P1;HPM_P2
2023/01/05 00:01:29;;;;;;;30.77;6.15;;;;;;;9.55;100.00;101519.69;5053695;28;20056;-73
2023/01/05 00:03:55;;;;;;;29.70;6.45;;;;;;;9.43;100.00;101525.63;5053571;28;20065;-74
2023/01/05 00:06:20;;;;;;;29.63;5.95;;;;;;;9.46;100.00;101509.84;5053670;28;20422;-73
2023/01/05 00:08:46;;;;;;;30.42;6.47;;;;;;;9.40;100.00;101515.00;5053461;28;20064;-75
2023/01/05 00:22:30;;;;;;;32.08;6.57;;;;;;;9.16;100.00;101521.56;5022532;28;20106;-81
2023/01/05 00:25:24;;;;;;;28.35;5.82;;;;;;;9.12;100.00;101526.75;5049286;28;20116;-79
2023/01/05 00:27:52;;;;;;;29.88;5.95;;;;;;;9.14;100.00;101533.81;5052557;28;20116;-81
2023/01/05 00:30:20;;;;;;;27.20;5.80;;;;;;;9.12;100.00;101534.66;5053028;28;20055;-81
2023/01/05 00:32:46;;;;;;;28.02;5.90;;;;;;;9.11;100.00;101532.88;5053178;28;20060;-79
2023/01/05 00:35:14;;;;;;;29.13;6.03;;;;;;;9.12;100.00;101534.66;5053028;28;20059;-81
2023/01/05 00:37:40;;;;;;;30.67;6.38;;;;;;;9.15;100.00;101529.44;5052844;28;20021;-80
2023/01/05 00:40:08;;;;;;;28.27;5.97;;;;;;;9.11;100.00;101524.97;5053148;28;20033;-79
2023/01/05 00:42:33;;;;;;;31.77;6.47;;;;;;;9.16;100.00;101523.28;5053131;28;20021;-79
2023/01/05 00:44:59;;;;;;;30.63;5.95;;;;;;;9.14;100.00;101525.03;5053036;28;20055;-80
2023/01/05 00:47:24;;;;;;;30.08;6.13;;;;;;;9.05;100.00;101534.50;5048821;28;20561;-80
2023/01/05 00:49:50;;;;;;;30.08;6.35;;;;;;;9.01;100.00;101532.69;5052919;28;20460;-80
2023/01/05 00:52:15;;;;;;;30.05;5.50;;;;;;;8.98;100.00;101535.22;5052708;28;20025;-80
2023/01/05 00:54:41;;;;;;;29.58;5.97;;;;;;;8.96;100.00;101533.44;5052940;28;20444;-77
2023/01/05 00:57:06;;;;;;;31.02;6.20;;;;;;;8.83;100.00;101516.44;5052641;28;20032;-80
2023/01/05 00:59:32;;;;;;;25.85;5.30;;;;;;;8.83;100.00;101527.00;5052887;28;20029;-77
2023/01/05 01:01:58;;;;;;;32.55;6.40;;;;;;;8.78;100.00;101526.00;5052119;28;20029;-76
2023/01/05 01:04:23;;;;;;;32.13;6.30;;;;;;;8.69;100.00;101534.59;5052743;28;20021;-74
2023/01/05 01:06:49;;;;;;;32.20;6.30;;;;;;;8.62;100.00;101544.09;5052716;28;20410;-74
2023/01/05 01:09:15;;;;;;;30.20;6.05;;;;;;;8.58;100.00;101544.88;5052435;28;20092;-80
2023/01/05 01:11:40;;;;;;;31.20;6.25;;;;;;;8.51;100.00;101535.06;5052538;28;20047;-77
2023/01/05 01:14:07;;;;;;;30.38;5.90;;;;;;;8.44;100.00;101548.91;5052828;28;20471;-78
2023/01/05 01:16:33;;;;;;;31.15;6.30;;;;;;;8.33;100.00;101551.25;5052437;28;20029;-73
2023/01/05 01:18:59;;;;;;;27.80;5.50;;;;;;;8.31;100.00;101542.44;5052514;28;20050;-73
2023/01/05 01:21:24;;;;;;;26.30;5.60;;;;;;;8.32;100.00;101542.47;5052538;28;20021;-75
2023/01/05 01:23:50;;;;;;;27.38;5.80;;;;;;;8.30;100.00;101552.09;5052358;28;20025;-74
2023/01/05 01:26:15;;;;;;;30.23;6.15;;;;;;;8.24;100.00;101553.66;5052286;28;20074;-73
2023/01/05 01:28:41;;;;;;;31.80;6.38;;;;;;;8.28;100.00;101564.31;5052549;28;20026;-74
2023/01/05 01:31:07;;;;;;;32.00;6.25;;;;;;;8.38;100.00;101557.53;5052269;28;20104;-73
2023/01/05 01:33:33;;;;;;;29.20;6.05;;;;;;;8.34;100.00;101553.03;5052241;28;20076;-73
2023/01/05 01:36:02;;;;;;;31.15;5.95;;;;;;;8.32;100.00;101560.91;5052378;28;20036;-73
2023/01/05 01:38:27;;;;;;;28.80;6.13;;;;;;;8.26;100.00;101557.25;5031211;28;20033;-73
2023/01/05 01:40:52;;;;;;;29.77;5.85;;;;;;;8.35;100.00;101565.38;5052197;28;20033;-73
2023/01/05 01:43:39;;;;;;;31.45;6.47;;;;;;;8.26;100.00;101566.03;5052651;28;20029;-73
2023/01/05 01:46:04;;;;;;;28.40;6.03;;;;;;;8.24;100.00;101572.09;5049355;28;20059;-75
2023/01/05 01:48:31;;;;;;;32.42;6.57;;;;;;;8.19;100.00;101564.09;5052166;28;20472;-73
2023/01/05 01:51:00;;;;;;;30.77;6.00;;;;;;;8.22;100.00;101569.44;5048195;28;20039;-74
2023/01/05 01:53:34;;;;;;;29.48;6.20;;;;;;;8.25;100.00;101573.91;5048267;28;20521;-74
2023/01/05 01:56:02;;;;;;;32.10;6.40;;;;;;;8.38;100.00;101581.25;5048540;28;20060;-73
2023/01/05 01:58:30;;;;;;;31.73;5.85;;;;;;;8.48;100.00;101569.25;5048208;28;20510;-74
2023/01/05 02:00:58;;;;;;;32.40;6.55;;;;;;;8.48;100.00;101575.38;5048221;28;20021;-73
2023/01/05 02:03:24;;;;;;;32.28;6.47;;;;;;;8.48;100.00;101577.16;5051978;28;20032;-74
2023/01/05 02:05:50;;;;;;;32.45;6.38;;;;;;;8.45;100.00;101580.59;5051952;28;20037;-74
2023/01/05 02:08:24;;;;;;;31.77;6.45;;;;;;;8.47;100.00;101581.50;5052353;28;20047;-73
2023/01/05 02:11:10;;;;;;;30.05;6.35;;;;;;;8.48;100.00;101577.16;5052073;28;20032;-74
2023/01/05 02:14:13;;;;;;;33.05;6.55;;;;;;;8.59;100.00;101585.31;5049409;28;20036;-76
2023/01/05 02:16:48;;;;;;;31.50;6.30;;;;;;;8.59;100.00;101586.22;5053397;28;20036;-73
2023/01/05 02:19:28;;;;;;;31.23;6.45;;;;;;;8.60;100.00;101587.97;5055747;28;20029;-74
2023/01/05 02:22:02;;;;;;;33.78;6.30;;;;;;;8.67;100.00;101599.56;5055701;28;20061;-73
2023/01/05 02:24:33;;;;;;;28.30;6.18;;;;;;;8.72;100.00;101587.38;5051667;28;20025;-73
2023/01/05 02:27:35;;;;;;;29.50;6.07;;;;;;;8.73;100.00;101590.03;5051851;28;20033;-75
2023/01/05 02:30:26;;;;;;;30.45;6.18;;;;;;;8.78;100.00;101592.81;5052220;28;20107;-74
2023/01/05 02:33:22;;;;;;;30.27;6.72;;;;;;;8.74;100.00;101593.59;5055442;28;20029;-74
2023/01/05 02:36:03;;;;;;;30.27;6.38;;;;;;;8.83;100.00;101595.56;5036418;28;20525;-73
2023/01/05 02:38:42;;;;;;;35.63;6.50;;;;;;;8.89;100.00;101593.06;5051692;28;20078;-75
2023/01/05 02:41:19;;;;;;;31.27;6.18;;;;;;;8.89;100.00;101593.94;5052910;28;20025;-74
2023/01/05 02:43:45;;;;;;;30.40;6.15;;;;;;;8.93;100.00;101599.28;5055203;28;20025;-75
2023/01/05 02:46:10;;;;;;;32.30;6.13;;;;;;;8.94;100.00;101604.59;5054937;28;20053;-73
2023/01/05 02:48:38;;;;;;;33.80;6.20;;;;;;;8.99;100.00;101602.06;5055235;28;20037;-75
2023/01/05 02:51:12;;;;;;;29.42;5.78;;;;;;;8.95;100.00;101595.81;5055223;28;20039;-73
2023/01/05 02:53:45;;;;;;;31.70;6.13;;;;;;;8.97;100.00;101606.41;5054901;28;20021;-73
2023/01/05 02:56:34;;;;;;;31.77;6.25;;;;;;;8.98;100.00;101598.53;5055114;28;20481;-74
2023/01/05 02:59:13;;;;;;;30.67;6.03;;;;;;;9.02;100.00;101599.50;5051485;28;20430;-74
2023/01/05 03:02:00;;;;;;;32.70;6.07;;;;;;;9.03;100.00;101607.44;5052628;28;20074;-73
2023/01/05 03:04:41;;;;;;;31.35;5.70;;;;;;;9.13;100.00;101610.28;5054184;28;20041;-73
2023/01/05 03:07:11;;;;;;;29.02;6.07;;;;;;;9.06;100.00;101602.25;5051914;28;20067;-74
2023/01/05 03:09:40;;;;;;;27.70;6.25;;;;;;;9.07;100.00;101604.03;5054763;28;20029;-74
2023/01/05 03:15:17;;;;;;;28.80;5.70;;;;;;;9.04;100.00;101609.25;5051667;28;20095;-75
2023/01/05 03:17:47;;;;;;;31.08;6.25;;;;;;;9.06;100.00;101609.28;5054665;28;20025;-73
2023/01/05 03:20:16;;;;;;;29.65;5.70;;;;;;;9.07;100.00;101604.03;5054454;28;20048;-73
2023/01/05 03:37:05;;;;;;;30.60;5.85;;;;;;;9.17;100.00;101606.88;5050587;28;20044;-73
2023/01/05 03:39:33;;;;;;;27.55;5.60;;;;;;;9.14;100.00;101612.94;5050572;28;20071;-73
2023/01/05 03:41:58;;;;;;;27.63;5.60;;;;;;;9.15;100.00;101619.13;5050235;28;20029;-74
2023/01/05 03:44:24;;;;;;;31.35;6.03;;;;;;;9.19;100.00;101611.31;5054062;28;20464;-73
2023/01/05 03:46:50;;;;;;;27.10;5.40;;;;;;;9.28;100.00;101610.63;5053685;28;20053;-77
2023/01/05 03:49:16;;;;;;;31.05;6.38;;;;;;;9.28;100.00;101618.53;5053955;28;20483;-74
2023/01/05 03:51:42;;;;;;;29.48;5.97;;;;;;;9.30;100.00;101622.09;5054041;28;20029;-73
2023/01/05 03:54:07;;;;;;;30.67;6.07;;;;;;;9.36;100.00;101623.97;5035981;28;20093;-73
2023/01/05 03:56:32;;;;;;;29.15;5.65;;;;;;;9.33;100.00;101616.88;5053712;28;20103;-73
2023/01/05 03:58:58;;;;;;;32.85;6.60;;;;;;;9.32;100.00;101628.31;5053879;28;20029;-73
2023/01/05 04:01:23;;;;;;;28.00;5.63;;;;;;;9.31;100.00;101613.34;5053845;28;20040;-73
2023/01/05 04:03:49;;;;;;;27.65;5.78;;;;;;;9.43;100.00;101624.13;5019459;28;20513;-76
2023/01/05 04:06:14;;;;;;;27.58;5.25;;;;;;;9.41;100.00;101627.63;5053681;28;20116;-78
2023/01/05 04:08:39;;;;;;;28.55;5.57;;;;;;;9.40;100.00;101620.56;5053483;28;20388;-73
2023/01/05 04:11:22;;;;;;;31.17;6.07;;;;;;;9.38;100.00;101628.44;5053569;28;20111;-74
2023/01/05 04:13:47;;;;;;;30.13;5.53;;;;;;;9.40;100.00;101626.72;5053587;28;20025;-73
2023/01/05 04:16:13;;;;;;;28.75;5.88;;;;;;;9.39;100.00;101624.97;5053411;28;20074;-73
2023/01/05 04:18:38;;;;;;;29.02;5.88;;;;;;;9.39;100.00;101618.75;5053326;28;20025;-73
2023/01/05 04:21:04;;;;;;;32.38;6.97;;;;;;;9.43;100.00;101632.06;5053480;28;20468;-73
2023/01/05 04:23:30;;;;;;;30.23;6.55;;;;;;;9.36;100.00;101627.53;5035403;28;20021;-73
2023/01/05 04:25:55;;;;;;;30.08;6.13;;;;;;;9.39;100.00;101618.75;5018893;28;20029;-75
2023/01/05 04:28:21;;;;;;;33.22;6.38;;;;;;;9.39;100.00;101614.41;5053392;28;20391;-75
2023/01/05 04:30:51;;;;;;;31.52;6.18;;;;;;;9.47;100.00;101632.16;5053032;28;20175;-73
2023/01/05 04:33:17;;;;;;;28.67;5.68;;;;;;;9.45;100.00;101632.13;5053044;28;20044;-74
2023/01/05 04:35:43;;;;;;;30.58;6.35;;;;;;;9.45;100.00;101628.56;5053227;28;20040;-73
2023/01/05 04:38:08;;;;;;;32.28;6.70;;;;;;;9.37;100.00;101631.06;5052227;28;20033;-74
2023/01/05 04:40:34;;;;;;;30.95;5.90;;;;;;;9.36;100.00;101630.16;5052968;28;20021;-75
2023/01/05 04:42:59;;;;;;;30.25;6.30;;;;;;;9.41;100.00;101638.19;5053165;28;20480;-74
2023/01/05 04:45:25;;;;;;;32.55;6.35;;;;;;;9.36;100.00;101624.91;5052810;28;20168;-74
2023/01/05 04:47:51;;;;;;;31.98;6.78;;;;;;;9.39;100.00;101622.31;5052552;28;20045;-74
2023/01/05 04:50:17;;;;;;;31.13;5.82;;;;;;;9.38;100.00;101617.88;5052814;28;20048;-73
2023/01/05 04:52:42;;;;;;;28.88;5.80;;;;;;;9.41;100.00;101612.66;5052705;28;20041;-74
2023/01/05 04:55:08;;;;;;;29.05;6.07;;;;;;;9.49;100.00;101614.59;5052907;28;20029;-76
2023/01/05 04:57:33;;;;;;;28.15;5.82;;;;;;;9.52;100.00;101638.41;5052945;28;20079;-74
2023/01/05 04:59:59;;;;;;;33.50;7.30;;;;;;;9.53;100.00;101629.63;5052625;28;20057;-74
2023/01/05 05:02:25;;;;;;;29.88;6.03;;;;;;;9.47;100.00;101626.88;5035139;28;20021;-74
2023/01/05 05:04:50;;;;;;;31.75;6.38;;;;;;;9.45;100.00;101628.56;5052550;28;20025;-73
2023/01/05 05:07:15;;;;;;;31.98;6.65;;;;;;;9.41;100.00;101639.06;5052546;28;20040;-73
2023/01/05 05:09:41;;;;;;;28.73;6.10;;;;;;;9.45;100.00;101631.22;5052540;28;20407;-73
2023/01/05 05:12:06;;;;;;;31.00;6.10;;;;;;;9.46;100.00;101647.06;5052456;28;20033;-75
2023/01/05 05:14:32;;;;;;;30.42;6.20;;;;;;;9.42;100.00;101646.13;5052490;28;20029;-73
2023/01/05 05:16:57;;;;;;;30.90;6.38;;;;;;;9.39;100.00;101640.78;5052925;28;20082;-73
2023/01/05 05:19:22;;;;;;;31.27;6.10;;;;;;;9.40;100.00;101652.22;5052420;28;20029;-73
2023/01/05 05:21:48;;;;;;;29.58;6.10;;;;;;;9.52;100.00;101656.88;5052431;28;20392;-73
2023/01/05 05:24:13;;;;;;;30.33;6.10;;;;;;;9.51;100.00;101663.00;5052494;28;20028;-73
2023/01/05 05:26:39;;;;;;;28.02;5.95;;;;;;;9.49;100.00;101675.28;5052338;28;20384;-75
2023/01/05 05:29:04;;;;;;;31.55;6.45;;;;;;;9.51;100.00;101668.28;5052248;28;20418;-74
2023/01/05 05:31:29;;;;;;;30.00;6.03;;;;;;;9.47;100.00;101669.09;5052513;28;20036;-73
2023/01/05 05:33:55;;;;;;;30.58;6.32;;;;;;;9.45;100.00;101665.50;5052722;28;20037;-75
2023/01/05 05:36:20;;;;;;;32.00;6.30;;;;;;;9.38;100.00;101659.22;5052401;28;20503;-74
2023/01/05 05:38:45;;;;;;;31.75;6.50;;;;;;;9.35;100.00;101662.69;5052195;28;20021;-73
2023/01/05 05:41:11;;;;;;;31.50;6.10;;;;;;;9.38;100.00;101670.66;5052325;28;20136;-73
2023/01/05 05:43:36;;;;;;;33.45;6.43;;;;;;;9.35;100.00;101669.69;5052338;28;20036;-73
2023/01/05 05:46:01;;;;;;;31.70;6.07;;;;;;;9.36;100.00;101671.47;5051963;28;20040;-74
2023/01/05 05:48:27;;;;;;;32.30;6.50;;;;;;;9.33;100.00;101676.69;5052844;28;20057;-74
2023/01/05 05:50:52;;;;;;;29.52;6.28;;;;;;;9.34;100.00;101675.84;5056163;28;20056;-74
2023/01/05 05:53:18;;;;;;;29.95;5.97;;;;;;;9.39;100.00;101676.81;5056038;28;20021;-73
2023/01/05 05:55:47;;;;;;;33.45;6.55;;;;;;;9.36;100.00;101680.31;5055982;28;20044;-73
2023/01/05 05:58:12;;;;;;;30.33;6.07;;;;;;;9.39;100.00;101682.09;5056065;28;20029;-73
2023/01/05 06:00:38;;;;;;;34.30;7.03;;;;;;;9.34;100.00;101684.63;5055909;28;20108;-73
2023/01/05 06:03:03;;;;;;;33.83;7.03;;;;;;;9.39;100.00;101708.50;5056053;28;20128;-74
2023/01/05 06:05:28;;;;;;;30.85;6.50;;;;;;;9.36;100.00;101700.50;5056081;28;20104;-73
2023/01/05 06:07:54;;;;;;;34.30;6.53;;;;;;;9.40;100.00;101703.25;5056015;28;20235;-73
2023/01/05 06:10:19;;;;;;;32.15;6.13;;;;;;;9.33;100.00;101701.31;5055710;28;20040;-74
2023/01/05 06:12:44;;;;;;;34.97;7.50;;;;;;;9.29;100.00;101710.03;5055825;28;20116;-74
2023/01/05 06:15:10;;;;;;;31.75;6.32;;;;;;;9.28;100.00;101704.75;5055583;28;20025;-75
2023/01/05 06:17:35;;;;;;;33.38;6.13;;;;;;;9.25;100.00;101709.06;5055732;28;20035;-74
2023/01/05 06:20:01;;;;;;;32.38;6.50;;;;;;;9.21;100.00;101706.31;5055595;28;20432;-73
2023/01/05 06:22:26;;;;;;;31.17;6.70;;;;;;;9.29;100.00;101707.41;5055451;28;20017;-73
2023/01/05 06:24:58;;;;;;;30.52;6.22;;;;;;;9.26;100.00;101728.41;5055892;28;20037;-73
2023/01/05 06:27:24;;;;;;;33.22;6.30;;;;;;;9.23;100.00;101726.63;5037224;28;20141;-87
2023/01/05 06:29:50;;;;;;;33.00;6.60;;;;;;;9.22;100.00;101716.91;5055249;28;20396;-86
2023/01/05 06:32:15;;;;;;;32.15;6.22;;;;;;;9.21;100.00;101730.06;5040973;28;20025;-88
2023/01/05 06:34:41;;;;;;;31.50;6.80;;;;;;;9.23;100.00;101723.06;5062216;28;20111;-85
2023/01/05 06:37:08;;;;;;;33.50;7.00;;;;;;;9.21;100.00;101722.16;5055934;28;20025;-86
2023/01/05 06:39:34;;;;;;;33.30;6.47;;;;;;;9.08;100.00;101735.03;5039563;28;20645;-86
2023/01/05 06:41:59;;;;;;;33.10;6.22;;;;;;;9.06;100.00;101739.38;5071314;28;20059;-87
2023/01/05 06:44:24;;;;;;;35.70;7.55;;;;;;;9.10;100.00;101743.00;5054774;28;20473;-89
2023/01/05 06:46:50;;;;;;;32.35;6.85;;;;;;;9.20;100.00;101749.38;5054021;28;20063;-86
2023/01/05 06:49:15;;;;;;;34.22;6.90;;;;;;;9.18;100.00;101751.09;5069618;28;20033;-84
2023/01/05 06:51:41;;;;;;;34.47;7.53;;;;;;;9.17;100.00;101730.84;5047212;28;20017;-83
2023/01/05 06:54:06;;;;;;;32.83;7.13;;;;;;;9.18;100.00;101759.03;5054131;28;20392;-85
2023/01/05 06:56:31;;;;;;;33.38;7.47;;;;;;;9.17;100.00;101752.81;5054615;28;20063;-85
2023/01/05 06:58:57;;;;;;;32.92;6.70;;;;;;;9.19;100.00;101760.81;5036572;28;20388;-85
2023/01/05 07:01:22;;;;;;;34.28;7.18;;;;;;;9.28;100.00;101766.31;5056160;28;20044;-82
2023/01/05 07:03:47;;;;;;;33.50;6.93;;;;;;;9.22;100.00;101759.13;5053686;28;20087;-75
2023/01/05 07:06:14;;;;;;;31.55;7.28;;;;;;;9.31;100.00;101774.28;5059509;28;20040;-80
2023/01/05 07:08:39;;;;;;;35.53;7.03;;;;;;;9.24;100.00;101761.81;5057753;28;20053;-74
2023/01/05 07:11:04;;;;;;;36.20;7.18;;;;;;;9.20;100.00;101763.50;5056359;28;20060;-77
2023/01/05 07:13:30;;;;;;;35.22;7.25;;;;;;;9.24;100.00;101767.06;5055362;28;20484;-79
2023/01/05 07:15:55;;;;;;;35.22;7.60;;;;;;;9.17;100.00;101771.28;5053543;28;20115;-80
2023/01/05 07:18:20;;;;;;;33.15;7.00;;;;;;;9.10;100.00;101758.84;5059448;28;20024;-82
2023/01/05 07:20:46;;;;;;;35.50;7.32;;;;;;;9.18;100.00;101766.94;5057612;28;20430;-73
2023/01/05 07:23:11;;;;;;;35.85;6.90;;;;;;;9.23;100.00;101766.19;5052433;28;20043;-80
2023/01/05 07:25:36;;;;;;;33.63;5.93;;;;;;;9.19;100.00;101768.72;5052201;28;20017;-77
2023/01/05 07:28:02;;;;;;;35.67;7.75;;;;;;;9.25;100.00;101784.69;5052796;28;20020;-80
2023/01/05 07:30:27;;;;;;;32.83;7.00;;;;;;;9.31;100.00;101769.00;5052416;28;20082;-80
2023/01/05 07:32:57;;;;;;;34.15;7.70;;;;;;;9.25;100.00;101782.06;5052170;28;20055;-80
2023/01/05 07:35:22;;;;;;;35.45;7.15;;;;;;;9.28;100.00;101783.91;5054771;28;20033;-81
2023/01/05 07:37:47;;;;;;;36.75;7.63;;;;;;;9.23;100.00;101782.03;5055683;28;20040;-74
2023/01/05 07:40:13;;;;;;;34.20;7.13;;;;;;;9.24;100.00;101778.50;5056662;28;20069;-80
2023/01/05 07:42:38;;;;;;;36.60;7.25;;;;;;;9.18;100.00;101798.59;5056150;28;20032;-73
2023/01/05 07:45:04;;;;;;;33.22;7.43;;;;;;;9.22;100.00;101788.16;5056229;28;20068;-78
2023/01/05 07:47:30;;;;;;;33.03;7.57;;;;;;;9.19;100.00;101796.00;5056254;28;20052;-78
2023/01/05 07:49:55;;;;;;;34.03;6.50;;;;;;;9.14;100.00;101802.88;5057843;28;20428;-80
2023/01/05 07:52:20;;;;;;;38.30;7.43;;;;;;;9.12;100.00;101796.69;5057891;28;20799;-78
2023/01/05 07:54:46;;;;;;;35.58;7.05;;;;;;;9.16;100.00;101790.63;5057509;28;20032;-74
2023/01/05 07:57:11;;;;;;;32.55;7.15;;;;;;;9.12;100.00;101793.16;5060369;28;20075;-78
2023/01/05 07:59:36;;;;;;;33.95;7.55;;;;;;;9.10;100.00;101800.13;5057198;28;20448;-83
2023/01/05 08:02:02;;;;;;;37.53;7.60;;;;;;;9.09;100.00;101804.53;5055547;28;20098;-82
2023/01/05 08:04:27;;;;;;;34.90;7.43;;;;;;;9.04;100.00;101814.97;5057091;28;20021;-78
2023/01/05 08:06:53;;;;;;;36.10;7.60;;;;;;;9.06;100.00;101815.00;5059488;28;20135;-74
2023/01/05 08:12:02;;;;;;;33.95;7.10;;;;;;;9.08;100.00;101819.44;5057064;28;20048;-76
2023/01/05 08:14:27;;;;;;;38.28;7.50;;;;;;;9.06;100.00;101815.88;5055396;28;20383;-75
2023/01/05 08:16:53;;;;;;;35.17;7.07;;;;;;;9.13;100.00;101818.66;5059100;28;20020;-75
2023/01/05 08:19:18;;;;;;;38.65;7.43;;;;;;;9.15;100.00;101822.25;5057722;28;20459;-76
2023/01/05 08:21:44;;;;;;;31.48;6.55;;;;;;;9.14;100.00;101823.97;5039325;28;20024;-75
2023/01/05 08:24:09;;;;;;;34.33;7.32;;;;;;;9.15;100.00;101835.44;5051675;28;20029;-75
2023/01/05 08:26:34;;;;;;;36.75;7.88;;;;;;;9.15;100.00;101840.72;5054541;28;20059;-75
2023/01/05 08:29:00;;;;;;;36.75;7.40;;;;;;;9.14;100.00;101834.53;5056347;28;20025;-78
2023/01/05 08:31:28;;;;;;;30.70;6.80;;;;;;;9.13;100.00;101843.31;5052377;28;20070;-74
2023/01/05 08:33:56;;;;;;;34.60;7.47;;;;;;;9.17;100.00;101841.66;5050862;28;20025;-77
2023/01/05 08:36:23;;;;;;;33.63;7.05;;;;;;;9.17;100.00;101849.56;5048582;28;20025;-74
2023/01/05 08:38:52;;;;;;;37.22;7.38;;;;;;;9.17;100.00;101841.66;5050858;28;20100;-74
2023/01/05 08:41:23;;;;;;;35.63;7.50;;;;;;;9.16;100.00;101848.69;5037191;28;20434;-72
2023/01/05 08:43:56;;;;;;;35.33;7.20;;;;;;;9.20;100.00;101849.63;5053452;28;20040;-77
2023/01/05 08:46:24;;;;;;;33.10;7.40;;;;;;;9.27;100.00;101861.25;5052221;28;20491;-72
2023/01/05 08:48:55;;;;;;;31.67;6.40;;;;;;;9.22;100.00;101859.38;5053474;28;20036;-73
2023/01/05 08:51:22;;;;;;;34.83;7.05;;;;;;;9.22;100.00;101874.34;5057878;28;20024;-75
2023/01/05 08:53:48;;;;;;;34.17;7.05;;;;;;;9.22;100.00;101864.66;5051677;28;20029;-72
2023/01/05 08:56:14;;;;;;;36.15;7.43;;;;;;;9.24;100.00;101870.84;5056383;28;20029;-77
2023/01/05 08:58:40;;;;;;;31.40;6.60;;;;;;;9.24;100.00;101867.34;5051576;28;20377;-73
2023/01/05 09:01:11;;;;;;;33.28;7.35;;;;;;;9.21;100.00;101869.91;5052868;28;20371;-73
2023/01/05 09:03:37;;;;;;;35.35;7.63;;;;;;;9.20;100.00;101874.28;5051277;28;20039;-73
2023/01/05 09:06:04;;;;;;;34.65;6.82;;;;;;;9.24;100.00;101883.16;5055188;28;20067;-74
2023/01/05 09:08:30;;;;;;;34.90;7.22;;;;;;;9.25;100.00;101885.84;5052461;28;20116;-72
2023/01/05 09:11:07;;;;;;;33.80;6.75;;;;;;;9.28;100.00;101886.78;5052425;28;20120;-73
2023/01/05 09:13:33;;;;;;;35.25;6.75;;;;;;;9.31;100.00;101890.41;5049955;28;20029;-73
2023/01/05 09:16:07;;;;;;;35.25;7.57;;;;;;;9.34;100.00;101889.59;5052384;28;20031;-75
2023/01/05 09:18:33;;;;;;;35.20;7.28;;;;;;;9.35;100.00;101887.00;5052393;28;20040;-72
2023/01/05 09:20:58;;;;;;;35.85;7.45;;;;;;;9.42;100.00;101898.56;5052371;28;20037;-73
2023/01/05 09:23:24;;;;;;;36.53;7.57;;;;;;;9.44;100.00;101896.88;5052034;28;20029;-72
2023/01/05 09:25:49;;;;;;;36.33;7.68;;;;;;;9.45;100.00;101895.13;5052246;28;20057;-73
2023/01/05 09:28:14;;;;;;;35.72;7.25;;;;;;;9.46;100.00;101902.19;5052542;28;20029;-75
2023/01/05 09:30:40;;;;;;;34.45;6.80;;;;;;;9.54;100.00;101909.47;5052127;28;20051;-73
2023/01/05 09:33:05;;;;;;;34.25;6.80;;;;;;;9.61;100.00;101902.59;5034271;28;20072;-73
2023/01/05 09:35:30;;;;;;;34.90;7.25;;;;;;;9.60;100.00;101906.09;5052418;28;20029;-72
2023/01/05 09:37:56;;;;;;;35.60;7.18;;;;;;;9.58;100.00;101920.97;5052100;28;20032;-72
2023/01/05 09:40:21;;;;;;;34.65;7.18;;;;;;;9.56;100.00;101922.69;5052176;28;20039;-72
2023/01/05 09:42:47;;;;;;;34.78;7.32;;;;;;;9.54;100.00;101914.75;5052376;28;20078;-73
2023/01/05 09:45:22;;;;;;;36.20;7.63;;;;;;;9.47;100.00;101926.00;5051993;28;20044;-72
2023/01/05 09:47:48;;;;;;;32.75;7.22;;;;;;;9.51;100.00;101922.59;5048680;28;20410;-72
2023/01/05 09:50:26;;;;;;;31.55;7.07;;;;;;;9.49;100.00;101931.31;5052222;28;20048;-72
2023/01/05 09:52:56;;;;;;;34.10;7.25;;;;;;;9.45;100.00;101934.72;5049586;28;20487;-74
2023/01/05 09:55:24;;;;;;;36.75;8.05;;;;;;;9.41;100.00;101923.19;5052002;28;20045;-71
2023/01/05 09:57:56;;;;;;;36.95;8.18;;;;;;;9.51;100.00;101926.94;5051930;28;20029;-73
2023/01/05 10:00:24;;;;;;;35.15;7.15;;;;;;;9.48;100.00;101929.53;5052425;28;20345;-75
2023/01/05 10:02:54;;;;;;;36.65;7.63;;;;;;;9.58;100.00;101932.47;5052164;28;20033;-73
2023/01/05 10:05:21;;;;;;;36.03;7.43;;;;;;;9.73;100.00;101928.41;5051973;28;20021;-74
2023/01/05 10:08:10;;;;;;;37.50;7.35;;;;;;;9.80;100.00;101937.38;5051960;28;20096;-75
2023/01/05 10:13:01;;;;;;;33.92;7.40;;;;;;;9.73;100.00;101946.91;5051565;28;20131;-81
2023/01/05 10:13:33;;;;;;;34.08;7.00;;;;;;;9.62;100.00;101938.69;5050362;28;20094;-72
2023/01/05 10:15:59;;;;;;;37.20;7.40;;;;;;;9.59;100.00;101946.53;5051282;28;20029;-73
2023/01/05 10:18:27;;;;;;;36.30;7.65;;;;;;;9.55;100.00;101937.66;5051655;28;20032;-72
2023/01/05 10:21:16;;;;;;;39.03;7.88;;;;;;;9.62;100.00;101949.25;5051672;28;20029;-72
2023/01/05 10:24:06;;;;;;;37.03;7.47;;;;;;;9.64;100.00;101952.84;5043377;28;20025;-76
2023/01/05 10:26:50;;;;;;;37.38;7.93;;;;;;;9.67;100.00;101945.00;5049813;28;20033;-76
2023/01/05 10:29:23;;;;;;;35.67;7.75;;;;;;;9.63;100.00;101958.09;5050491;28;20029;-77
2023/01/05 10:31:58;;;;;;;;;;;;;;;9.82;100.00;101962.09;5051028;28;20103;-76
2023/01/05 10:34:41;;;;;;;34.25;7.32;;;;;;;9.84;100.00;101955.09;5048318;28;20015;-75
2023/01/05 10:37:40;;;;;;;36.58;7.57;;;;;;;9.80;100.00;101974.34;5058389;28;20429;-73
2023/01/05 10:40:26;;;;;;;33.00;6.97;;;;;;;9.99;100.00;101951.91;5052836;28;20400;-79
2023/01/05 10:43:23;;;;;;;35.97;7.13;;;;;;;10.05;100.00;101971.47;5054145;28;20032;-76
2023/01/05 10:45:48;;;;;;;32.35;7.13;;;;;;;10.00;100.00;101961.63;5056294;28;20365;-75
2023/01/05 10:48:16;;;;;;;34.83;7.40;;;;;;;10.02;100.00;101960.84;5057719;28;20063;-74
2023/01/05 10:50:43;;;;;;;32.88;7.53;;;;;;;9.95;100.00;101958.88;5057304;28;20040;-74
2023/01/05 10:53:13;;;;;;;31.48;6.80;;;;;;;9.96;100.00;101960.69;5053777;28;20472;-74
2023/01/05 10:56:20;;;;;;;33.78;7.70;;;;;;;10.03;100.00;101973.19;5054590;28;20101;-77
2023/01/05 10:58:46;;;;;;;34.22;8.05;;;;;;;10.00;100.00;101959.88;5053931;28;20033;-74
2023/01/05 11:01:27;;;;;;;32.45;7.43;;;;;;;10.08;100.00;101963.63;5054296;28;20033;-74
2023/01/05 11:04:18;;;;;;;34.33;7.70;;;;;;;10.19;100.00;101968.25;5052124;28;20109;-79
2023/01/05 11:06:45;;;;;;;36.63;8.13;;;;;;;10.07;100.00;101975.03;5051034;28;20132;-77
2023/01/05 11:09:17;;;;;;;35.30;7.85;;;;;;;9.99;100.00;101973.97;5057885;28;20466;-75
2023/01/05 11:11:55;;;;;;;34.17;7.60;;;;;;;10.05;100.00;101966.19;5053981;28;20021;-74
2023/01/05 11:14:21;;;;;;;37.22;7.80;;;;;;;10.20;100.00;101968.28;5054715;28;20456;-74
2023/01/05 11:16:51;;;;;;;35.22;7.93;;;;;;;10.17;100.00;101975.28;5054416;28;20040;-74
2023/01/05 11:19:21;;;;;;;35.30;7.97;;;;;;;10.15;100.00;101966.41;5054413;28;20392;-75
2023/01/05 11:21:46;;;;;;;32.58;7.40;;;;;;;10.16;100.00;101973.47;5054609;28;20029;-74
2023/01/05 11:24:31;;;;;;;33.00;7.88;;;;;;;10.22;100.00;101970.97;5054571;28;20124;-78
2023/01/05 11:27:00;;;;;;;34.90;8.25;;;;;;;10.08;100.00;101962.72;5054245;28;20029;-75
2023/01/05 11:29:26;;;;;;;34.72;8.35;;;;;;;10.05;100.00;101960.03;5054178;28;20040;-74
2023/01/05 11:32:03;;;;;;;35.13;8.32;;;;;;;10.04;100.00;101964.38;5054402;28;20392;-77
2023/01/05 11:34:47;;;;;;;36.47;8.30;;;;;;;9.98;100.00;101952.81;5050358;28;20483;-74
2023/01/05 11:37:29;;;;;;;31.10;7.85;;;;;;;9.96;100.00;101944.84;5051840;28;20063;-76
2023/01/05 11:39:56;;;;;;;;;;;;;;;10.02;100.00;101952.91;5054515;28;20028;-74
2023/01/05 11:42:21;;;;;;;34.35;8.15;;;;;;;9.91;100.00;101954.38;5054032;28;19916;-75
2023/01/05 11:44:50;;;;;;;33.38;8.02;;;;;;;9.95;100.00;101951.84;5054090;28;20051;-77
2023/01/05 11:47:24;;;;;;;33.83;8.25;;;;;;;10.02;100.00;101946.72;5053369;28;20050;-74
2023/01/05 11:50:17;;;;;;;33.50;8.95;;;;;;;10.00;100.00;101949.31;5053645;28;20040;-74
2023/01/05 11:52:45;;;;;;;36.00;8.15;;;;;;;9.98;100.00;101951.03;5051052;28;20048;-75
2023/01/05 11:55:22;;;;;;;33.85;7.90;;;;;;;10.04;100.00;101947.66;5053688;28;20025;-77
2023/01/05 11:57:52;;;;;;;31.85;7.60;;;;;;;9.98;100.00;101939.59;5053770;28;20024;-77